createdAt,value
2023-03-10T00:01:57.891Z,9.07
2023-03-10T00:04:27.213Z,10.00
2023-03-10T00:06:54.025Z,9.17
2023-03-10T00:09:20.827Z,9.70
2023-03-10T00:11:47.755Z,10.10
2023-03-10T00:14:16.874Z,9.30
2023-03-10T00:16:44.253Z,9.57
2023-03-10T00:19:11.068Z,10.37
2023-03-10T00:21:37.835Z,9.80
2023-03-10T00:24:04.764Z,9.20
2023-03-10T00:26:31.903Z,9.73
2023-03-10T00:28:58.705Z,9.60
2023-03-10T00:31:26.779Z,10.33
2023-03-10T00:33:53.584Z,9.87
2023-03-10T00:36:23.986Z,9.70
2023-03-10T00:38:53.687Z,9.50
2023-03-10T00:41:25.104Z,9.73
2023-03-10T00:43:54.714Z,9.83
2023-03-10T00:46:23.952Z,10.00
2023-03-10T00:48:53.134Z,10.07
2023-03-10T00:51:20.530Z,10.53
2023-03-10T00:53:50.001Z,10.80
2023-03-10T00:56:23.459Z,9.90
2023-03-10T00:58:58.060Z,10.87
2023-03-10T01:01:37.288Z,10.50
2023-03-10T01:04:06.068Z,9.97
2023-03-10T01:06:35.516Z,10.27
2023-03-10T01:09:02.306Z,10.37
2023-03-10T01:11:31.734Z,11.03
2023-03-10T01:13:59.932Z,10.73
2023-03-10T01:16:31.510Z,12.00
2023-03-10T01:18:58.811Z,10.87
2023-03-10T01:21:30.657Z,12.33
2023-03-10T01:23:57.594Z,12.50
2023-03-10T01:26:24.430Z,13.07
2023-03-10T01:28:51.235Z,11.93
2023-03-10T01:31:18.362Z,12.43
2023-03-10T01:33:47.647Z,12.97
2023-03-10T01:36:16.665Z,14.33
2023-03-10T01:38:44.127Z,12.53
2023-03-10T01:41:11.190Z,13.37
2023-03-10T01:43:44.362Z,13.97
2023-03-10T01:46:31.492Z,12.97
2023-03-10T01:49:01.372Z,13.77
2023-03-10T01:51:29.458Z,14.10
2023-03-10T01:53:58.769Z,13.97
2023-03-10T01:56:25.600Z,14.60
2023-03-10T01:58:54.899Z,14.23
2023-03-10T02:01:24.238Z,13.27
2023-03-10T02:04:00.214Z,14.93
2023-03-10T02:06:27.082Z,13.77
2023-03-10T02:08:56.771Z,12.97
2023-03-10T02:11:23.678Z,13.53
2023-03-10T02:13:53.217Z,14.90
2023-03-10T02:16:20.045Z,14.67
2023-03-10T02:18:47.868Z,14.53
2023-03-10T02:21:39.486Z,14.57
2023-03-10T02:24:26.781Z,14.13
2023-03-10T02:27:11.844Z,14.23
2023-03-10T02:30:02.538Z,15.33
2023-03-10T02:32:30.426Z,15.70
2023-03-10T02:34:57.383Z,14.20
2023-03-10T02:37:30.115Z,15.33
2023-03-10T02:39:59.541Z,15.67
2023-03-10T02:42:33.799Z,15.53
2023-03-10T02:45:00.586Z,16.30
2023-03-10T02:47:27.378Z,16.20
2023-03-10T02:49:54.147Z,16.20
2023-03-10T02:52:38.350Z,16.00
2023-03-10T02:55:07.895Z,16.30
2023-03-10T02:57:34.724Z,16.30
2023-03-10T03:00:01.551Z,16.97
2023-03-10T03:02:32.981Z,16.40
2023-03-10T03:04:59.774Z,17.27
2023-03-10T03:07:29.928Z,17.50
2023-03-10T03:09:56.729Z,16.80
2023-03-10T03:12:23.509Z,17.40
2023-03-10T03:14:50.349Z,16.87
2023-03-10T03:17:17.197Z,16.30
2023-03-10T03:19:44.018Z,16.57
2023-03-10T03:22:10.840Z,17.27
2023-03-10T03:24:37.726Z,17.00
2023-03-10T03:27:05.326Z,16.97
2023-03-10T03:29:32.215Z,18.43
2023-03-10T03:31:59.193Z,18.67
2023-03-10T03:35:16.054Z,19.20
2023-03-10T03:37:43.547Z,19.40
2023-03-10T03:40:13.940Z,19.07
2023-03-10T03:42:47.214Z,19.50
2023-03-10T03:45:17.572Z,18.47
2023-03-10T03:47:44.632Z,18.40
2023-03-10T03:50:13.131Z,18.47
2023-03-10T03:52:40.416Z,19.03
2023-03-10T03:55:07.810Z,17.60
2023-03-10T03:57:34.770Z,18.10
2023-03-10T04:00:01.575Z,18.27
2023-03-10T04:02:32.956Z,18.33
2023-03-10T04:04:59.832Z,19.30
2023-03-10T04:07:26.630Z,21.33
2023-03-10T04:09:53.410Z,22.07
2023-03-10T04:12:22.776Z,23.07
2023-03-10T04:14:49.608Z,23.83
2023-03-10T04:17:16.840Z,23.63
2023-03-10T04:19:45.857Z,22.17
2023-03-10T04:22:14.190Z,25.23
2023-03-10T04:24:43.254Z,24.10
2023-03-10T04:27:14.581Z,23.17
2023-03-10T04:29:41.344Z,24.43
2023-03-10T04:32:08.221Z,23.93
2023-03-10T04:34:35.011Z,23.97
2023-03-10T04:37:04.412Z,24.07
2023-03-10T04:39:31.200Z,22.43
2023-03-10T04:41:57.962Z,22.37
2023-03-10T04:44:31.509Z,22.13
2023-03-10T04:47:03.586Z,22.50
2023-03-10T04:49:30.433Z,21.97
2023-03-10T04:51:57.221Z,22.47
2023-03-10T04:54:26.361Z,21.63
2023-03-10T04:56:53.181Z,21.40
2023-03-10T04:59:21.575Z,22.50
2023-03-10T05:01:48.589Z,21.60
2023-03-10T05:04:17.933Z,20.83
2023-03-10T05:06:44.761Z,20.93
2023-03-10T05:09:13.682Z,21.07
2023-03-10T05:11:40.505Z,21.27
2023-03-10T05:14:07.359Z,21.67
2023-03-10T05:16:34.207Z,21.57
2023-03-10T05:19:01.016Z,22.63
2023-03-10T05:21:27.856Z,22.17
2023-03-10T05:23:54.789Z,20.40
2023-03-10T05:26:21.553Z,22.03
2023-03-10T05:28:48.476Z,21.40
2023-03-10T05:31:16.572Z,21.33
2023-03-10T05:33:43.464Z,21.47
2023-03-10T05:36:11.657Z,20.67
2023-03-10T05:38:38.637Z,22.20
2023-03-10T05:41:11.662Z,22.37
2023-03-10T05:43:38.914Z,22.77
2023-03-10T05:46:08.039Z,23.53
2023-03-10T05:48:37.417Z,22.37
2023-03-10T05:51:10.484Z,22.57
2023-03-10T05:53:39.949Z,22.27
2023-03-10T05:56:08.075Z,23.53
2023-03-10T05:58:34.894Z,23.73
2023-03-10T06:01:03.807Z,23.23
2023-03-10T06:03:30.992Z,23.67
2023-03-10T06:05:58.318Z,23.40
2023-03-10T06:08:26.704Z,24.33
2023-03-10T06:10:53.650Z,23.23
2023-03-10T06:13:23.335Z,24.00
2023-03-10T06:15:57.103Z,24.87
2023-03-10T06:18:24.084Z,24.97
2023-03-10T06:20:50.920Z,24.50
2023-03-10T06:23:18.085Z,25.47
2023-03-10T06:25:45.173Z,25.27
2023-03-10T06:28:12.163Z,25.90
2023-03-10T06:30:41.311Z,27.47
2023-03-10T06:33:10.705Z,27.03
2023-03-10T06:35:39.647Z,26.87
2023-03-10T06:38:06.449Z,28.57
2023-03-10T06:40:33.197Z,28.00
2023-03-10T06:43:00.056Z,28.40
2023-03-10T06:45:26.830Z,28.20
2023-03-10T06:47:55.961Z,29.50
2023-03-10T06:50:22.719Z,31.53
2023-03-10T06:52:49.512Z,30.43
2023-03-10T06:55:17.056Z,30.07
2023-03-10T06:57:43.875Z,29.30
2023-03-10T07:00:12.401Z,30.03
2023-03-10T07:02:44.434Z,30.40
2023-03-10T07:05:12.234Z,29.80
2023-03-10T07:07:41.528Z,29.13
2023-03-10T07:10:09.264Z,30.10
2023-03-10T07:12:38.261Z,30.80
2023-03-10T07:15:05.580Z,29.93
2023-03-10T07:17:32.403Z,29.97
2023-03-10T07:19:59.188Z,29.67
2023-03-10T07:22:25.962Z,30.07
2023-03-10T07:24:58.344Z,31.20
2023-03-10T07:27:25.098Z,29.20
2023-03-10T07:29:51.868Z,30.07
2023-03-10T07:32:18.767Z,29.37
2023-03-10T07:34:45.577Z,29.83
2023-03-10T07:37:12.430Z,29.00
2023-03-10T07:39:41.364Z,30.03
2023-03-10T07:42:10.555Z,29.93
2023-03-10T07:44:37.312Z,29.40
2023-03-10T07:47:04.187Z,29.87
2023-03-10T07:49:30.949Z,30.70
2023-03-10T07:51:57.776Z,30.17
2023-03-10T07:54:24.576Z,30.63
2023-03-10T07:56:51.402Z,29.70
2023-03-10T07:59:18.220Z,31.77
2023-03-10T08:01:47.335Z,29.97
2023-03-10T08:04:14.498Z,31.20
2023-03-10T08:06:41.577Z,30.93
2023-03-10T08:09:10.776Z,32.57
2023-03-10T08:11:38.012Z,31.47
2023-03-10T08:14:04.923Z,30.77
2023-03-10T08:16:33.927Z,33.60
2023-03-10T08:19:00.728Z,32.80
2023-03-10T08:21:30.159Z,33.27
2023-03-10T08:23:56.959Z,32.17
2023-03-10T08:26:25.956Z,33.30
2023-03-10T08:28:53.009Z,32.77
2023-03-10T08:31:22.185Z,34.03
2023-03-10T08:33:51.533Z,33.07
2023-03-10T08:36:20.255Z,33.33
2023-03-10T08:38:49.821Z,32.50
2023-03-10T08:41:20.868Z,34.20
2023-03-10T08:43:49.303Z,34.80
2023-03-10T08:46:17.049Z,34.17
2023-03-10T08:48:43.903Z,33.17
2023-03-10T08:51:15.756Z,33.57
2023-03-10T08:53:43.205Z,34.97
2023-03-10T08:56:10.066Z,33.13
2023-03-10T08:58:36.890Z,32.50
2023-03-10T09:01:06.015Z,33.60
2023-03-10T09:03:41.521Z,32.30
2023-03-10T09:06:08.473Z,33.07
2023-03-10T09:08:35.310Z,33.07
2023-03-10T09:11:02.357Z,32.17
2023-03-10T09:13:31.593Z,31.27
2023-03-10T09:16:05.644Z,31.63
2023-03-10T09:18:36.005Z,30.50
2023-03-10T09:21:05.219Z,32.27
2023-03-10T09:23:32.082Z,30.17
2023-03-10T09:25:59.178Z,30.97
2023-03-10T09:28:25.973Z,30.97
2023-03-10T09:30:55.165Z,31.60
2023-03-10T09:33:25.048Z,29.20
2023-03-10T09:36:05.617Z,31.63
2023-03-10T09:38:35.716Z,29.50
2023-03-10T09:41:13.950Z,29.30
2023-03-10T09:43:50.466Z,28.47
2023-03-10T09:46:34.640Z,27.33
2023-03-10T09:49:06.638Z,27.27
2023-03-10T09:51:33.504Z,26.83
2023-03-10T09:54:06.491Z,28.30
2023-03-10T09:56:36.004Z,28.23
2023-03-10T09:59:09.799Z,27.80
2023-03-10T10:01:38.686Z,26.67
2023-03-10T10:04:10.770Z,27.57
2023-03-10T10:06:39.149Z,25.70
2023-03-10T10:09:29.666Z,25.30
2023-03-10T10:11:58.806Z,24.87
2023-03-10T10:14:30.466Z,25.77
2023-03-10T10:17:31.641Z,25.17
2023-03-10T10:20:01.395Z,24.50
2023-03-10T10:22:30.564Z,25.50
2023-03-10T10:25:09.702Z,25.73
2023-03-10T10:27:37.100Z,25.37
2023-03-10T10:30:27.089Z,24.50
2023-03-10T10:32:58.091Z,25.43
2023-03-10T10:35:26.299Z,26.27
2023-03-10T10:38:26.741Z,25.70
2023-03-10T10:40:59.821Z,24.87
2023-03-10T10:43:29.232Z,25.47
2023-03-10T10:46:07.262Z,25.93
2023-03-10T10:48:46.238Z,24.83
2023-03-10T10:51:29.947Z,24.73
2023-03-10T10:53:57.507Z,26.20
2023-03-10T10:56:26.732Z,24.27
2023-03-10T10:59:33.543Z,22.83
2023-03-10T11:02:23.118Z,23.67
2023-03-10T11:04:49.992Z,24.60
2023-03-10T11:07:29.210Z,24.23
2023-03-10T11:09:59.494Z,24.23
2023-03-10T11:12:44.044Z,24.60
2023-03-10T11:15:30.048Z,24.43
2023-03-10T11:18:14.144Z,24.80
2023-03-10T11:20:58.853Z,23.57
2023-03-10T11:23:34.979Z,25.77
2023-03-10T11:26:33.548Z,24.37
2023-03-10T11:29:17.555Z,24.63
2023-03-10T11:32:19.283Z,24.57
2023-03-10T11:34:49.268Z,22.97
2023-03-10T11:37:26.237Z,22.17
2023-03-10T11:40:19.811Z,23.13
2023-03-10T11:42:59.372Z,21.73
2023-03-10T11:45:52.854Z,21.97
2023-03-10T11:48:44.541Z,19.10
2023-03-10T11:51:28.311Z,20.97
2023-03-10T11:53:57.269Z,19.93
2023-03-10T11:56:27.158Z,19.73
2023-03-10T11:59:15.320Z,18.57
2023-03-10T12:02:09.984Z,18.70
2023-03-10T12:04:40.290Z,17.67
2023-03-10T12:07:26.978Z,15.77
2023-03-10T12:09:58.939Z,14.93
2023-03-10T12:12:31.521Z,14.47
2023-03-10T12:15:00.575Z,13.80
2023-03-10T12:17:27.482Z,13.07
2023-03-10T12:20:16.019Z,13.17
2023-03-10T12:22:43.620Z,12.30
2023-03-10T12:25:33.136Z,12.10
2023-03-10T12:28:20.808Z,10.87
2023-03-10T12:31:00.345Z,10.77
2023-03-10T12:33:42.500Z,11.37
2023-03-10T12:36:32.610Z,10.40
2023-03-10T12:39:22.012Z,10.33
2023-03-10T12:41:50.139Z,9.77
2023-03-10T12:44:50.833Z,9.70
2023-03-10T12:47:25.306Z,9.80
2023-03-10T12:49:56.855Z,9.63
2023-03-10T12:52:34.523Z,9.20
2023-03-10T12:55:24.877Z,9.27
2023-03-10T12:58:06.157Z,8.40
2023-03-10T13:00:45.389Z,8.90
2023-03-10T13:03:30.802Z,8.30
2023-03-10T13:06:06.375Z,8.47
2023-03-10T13:08:36.090Z,7.90
2023-03-10T13:11:03.110Z,7.83
2023-03-10T13:13:32.997Z,8.00
2023-03-10T13:16:04.689Z,7.93
2023-03-10T13:18:33.770Z,8.03
2023-03-10T13:21:01.752Z,7.80
2023-03-10T13:23:35.445Z,8.27
2023-03-10T13:26:04.504Z,8.00
2023-03-10T13:28:32.100Z,7.67
2023-03-10T13:31:19.082Z,7.77
2023-03-10T13:33:53.415Z,6.97
2023-03-10T13:36:22.613Z,6.87
2023-03-10T13:38:50.104Z,6.80
2023-03-10T13:41:19.334Z,5.27
2023-03-10T13:43:48.552Z,5.30
2023-03-10T13:46:16.152Z,4.07
2023-03-10T13:48:43.052Z,3.37
2023-03-10T13:51:19.105Z,3.50
2023-03-10T13:53:46.857Z,3.93
2023-03-10T13:56:25.177Z,3.80
2023-03-10T13:58:56.472Z,4.13
2023-03-10T14:01:28.308Z,3.87
2023-03-10T14:04:00.607Z,3.80
2023-03-10T14:06:28.243Z,3.67
2023-03-10T14:08:55.103Z,4.07
2023-03-10T14:11:31.557Z,3.50
2023-03-10T14:14:01.279Z,3.90
2023-03-10T14:16:48.377Z,4.53
2023-03-10T14:19:35.232Z,3.73
2023-03-10T14:22:22.323Z,4.00
2023-03-10T14:24:49.187Z,3.83
2023-03-10T14:27:16.060Z,3.53
2023-03-10T14:29:49.372Z,3.37
2023-03-10T14:32:16.228Z,3.73
2023-03-10T14:34:43.028Z,3.53
2023-03-10T14:37:09.885Z,3.67
2023-03-10T14:39:36.725Z,3.67
2023-03-10T14:42:03.879Z,4.10
2023-03-10T14:44:30.940Z,4.07
2023-03-10T14:46:57.886Z,4.17
2023-03-10T14:49:27.655Z,3.80
2023-03-10T14:51:54.426Z,4.47
2023-03-10T14:54:23.515Z,4.70
2023-03-10T14:56:53.711Z,4.50
2023-03-10T14:59:20.490Z,5.53
2023-03-10T15:01:47.289Z,4.70
2023-03-10T15:04:21.950Z,4.20
2023-03-10T15:06:48.813Z,4.50
2023-03-10T15:09:15.597Z,3.77
2023-03-10T15:11:44.933Z,4.20
2023-03-10T15:14:21.048Z,3.97
2023-03-10T15:16:47.843Z,3.43
2023-03-10T15:19:19.795Z,3.40
2023-03-10T15:21:46.608Z,3.27
2023-03-10T15:24:13.405Z,3.40
2023-03-10T15:26:42.452Z,3.30
2023-03-10T15:29:17.677Z,3.50
2023-03-10T15:31:44.536Z,3.73
2023-03-10T15:34:11.449Z,2.90
2023-03-10T15:36:38.280Z,2.97
2023-03-10T15:39:07.564Z,3.50
2023-03-10T15:41:37.914Z,3.07
2023-03-10T15:44:05.543Z,3.30
2023-03-10T15:46:32.535Z,3.10
2023-03-10T15:49:03.213Z,3.00
2023-03-10T15:51:29.975Z,3.33
2023-03-10T15:53:56.804Z,2.97
2023-03-10T15:56:23.698Z,3.13
2023-03-10T15:58:50.765Z,3.37
2023-03-10T16:01:20.933Z,3.87
2023-03-10T16:03:48.915Z,3.40
2023-03-10T16:06:16.046Z,3.30
2023-03-10T16:08:43.150Z,3.57
2023-03-10T16:11:20.624Z,3.93
2023-03-10T16:13:49.684Z,4.00
2023-03-10T16:16:20.103Z,4.10
2023-03-10T16:18:49.566Z,4.63
2023-03-10T16:21:18.793Z,4.87
2023-03-10T16:23:48.168Z,3.90
2023-03-10T16:26:21.219Z,4.20
2023-03-10T16:28:53.078Z,4.60
2023-03-10T16:31:21.541Z,4.37
2023-03-10T16:33:48.683Z,4.30
2023-03-10T16:36:18.506Z,3.97
2023-03-10T16:38:45.388Z,4.70
2023-03-10T16:41:12.398Z,4.70
2023-03-10T16:43:39.739Z,4.60
2023-03-10T16:46:17.463Z,4.67
2023-03-10T16:48:45.794Z,4.60
2023-03-10T16:51:31.945Z,4.40
2023-03-10T16:54:00.328Z,4.67
2023-03-10T16:56:29.709Z,4.80
2023-03-10T16:58:58.874Z,5.27
2023-03-10T17:01:25.786Z,6.13
2023-03-10T17:03:53.508Z,5.30
2023-03-10T17:06:23.328Z,5.80
2023-03-10T17:08:50.731Z,5.80
2023-03-10T17:11:29.502Z,6.00
2023-03-10T17:13:58.546Z,5.80
2023-03-10T17:16:28.526Z,5.80
2023-03-10T17:19:00.308Z,5.70
2023-03-10T17:21:35.962Z,5.40
2023-03-10T17:24:06.788Z,5.73
2023-03-10T17:26:36.179Z,6.17
2023-03-10T17:29:08.156Z,6.10
2023-03-10T17:31:37.584Z,6.40
2023-03-10T17:34:06.843Z,6.40
2023-03-10T17:36:33.802Z,5.90
2023-03-10T17:39:03.768Z,5.93
2023-03-10T17:41:33.174Z,5.63
2023-03-10T17:43:59.945Z,6.73
2023-03-10T17:46:28.597Z,5.90
2023-03-10T17:48:55.613Z,5.90
2023-03-10T17:51:26.618Z,6.30
2023-03-10T17:53:53.596Z,6.90
2023-03-10T17:56:22.646Z,6.33
2023-03-10T17:58:52.286Z,6.73
2023-03-10T18:01:26.557Z,6.33
2023-03-10T18:03:57.271Z,6.10
2023-03-10T18:06:28.856Z,6.70
2023-03-10T18:08:56.718Z,6.50
2023-03-10T18:11:24.519Z,6.77
2023-03-10T18:13:51.554Z,7.40
2023-03-10T18:16:27.298Z,7.33
2023-03-10T18:18:59.664Z,7.17
2023-03-10T18:21:26.716Z,6.90
2023-03-10T18:23:53.593Z,6.80
2023-03-10T18:26:25.030Z,7.20
2023-03-10T18:28:53.991Z,7.43
2023-03-10T18:31:22.789Z,7.40
2023-03-10T18:33:49.725Z,7.30
2023-03-10T18:36:17.217Z,7.07
2023-03-10T18:38:44.794Z,7.43
2023-03-10T18:41:11.619Z,7.43
2023-03-10T18:43:38.378Z,7.23
2023-03-10T18:46:05.272Z,8.07
2023-03-10T18:48:32.132Z,7.47
2023-03-10T18:51:04.191Z,7.40
2023-03-10T18:53:33.287Z,7.43
2023-03-10T18:56:00.280Z,8.10
2023-03-10T18:58:27.056Z,8.23
2023-03-10T19:00:56.228Z,9.03
2023-03-10T19:03:25.132Z,9.40
2023-03-10T19:05:57.099Z,10.03
2023-03-10T19:08:27.131Z,10.33
2023-03-10T19:10:56.081Z,12.87
2023-03-10T19:13:23.561Z,11.83
2023-03-10T19:15:52.610Z,12.23
2023-03-10T19:18:19.389Z,12.27
2023-03-10T19:20:46.631Z,12.37
2023-03-10T19:23:14.484Z,12.60
2023-03-10T19:25:41.343Z,13.13
2023-03-10T19:28:10.637Z,12.10
2023-03-10T19:30:40.235Z,11.90
2023-03-10T19:33:07.005Z,11.80
2023-03-10T19:35:36.082Z,11.77
2023-03-10T19:38:05.686Z,11.60
2023-03-10T19:40:32.513Z,11.10
2023-03-10T19:42:59.380Z,11.47
2023-03-10T19:45:26.307Z,11.70
2023-03-10T19:47:53.149Z,12.03
2023-03-10T19:50:20.093Z,11.60
2023-03-10T19:52:47.990Z,11.67
2023-03-10T19:55:20.042Z,11.77
2023-03-10T19:57:50.168Z,10.70
2023-03-10T20:00:19.125Z,11.37
2023-03-10T20:02:46.197Z,10.63
2023-03-10T20:05:16.309Z,10.73
2023-03-10T20:07:48.878Z,10.53
2023-03-10T20:10:16.390Z,10.60
2023-03-10T20:12:47.093Z,10.57
2023-03-10T20:15:17.344Z,9.40
2023-03-10T20:17:44.156Z,9.87
2023-03-10T20:20:12.317Z,10.33
2023-03-10T20:22:39.820Z,10.47
2023-03-10T20:25:09.832Z,9.63
2023-03-10T20:27:36.774Z,9.67
2023-03-10T20:30:12.309Z,10.97
2023-03-10T20:32:39.109Z,11.13
2023-03-10T20:35:06.316Z,10.40
2023-03-10T20:37:35.807Z,10.20
2023-03-10T20:40:07.002Z,10.03
2023-03-10T20:42:33.869Z,9.73
2023-03-10T20:45:02.981Z,10.23
2023-03-10T20:47:29.754Z,9.43
2023-03-10T20:49:58.942Z,9.93
2023-03-10T20:52:25.948Z,9.80
2023-03-10T20:54:55.944Z,9.63
2023-03-10T20:57:25.346Z,11.33
2023-03-10T20:59:52.112Z,9.83
2023-03-10T21:02:19.018Z,10.27
2023-03-10T21:04:47.139Z,11.27
2023-03-10T21:07:14.422Z,11.10
2023-03-10T21:09:42.106Z,11.17
2023-03-10T21:12:12.137Z,12.90
2023-03-10T21:14:39.111Z,15.83
2023-03-10T21:17:05.972Z,14.97
2023-03-10T21:19:32.802Z,14.87
2023-03-10T21:22:03.405Z,15.73
2023-03-10T21:24:30.408Z,15.23
2023-03-10T21:26:57.238Z,16.67
2023-03-10T21:29:26.259Z,16.87
2023-03-10T21:31:53.033Z,17.10
2023-03-10T21:34:19.852Z,18.03
2023-03-10T21:36:46.664Z,17.83
2023-03-10T21:39:13.545Z,18.00
2023-03-10T21:41:42.873Z,16.47
2023-03-10T21:44:10.505Z,16.80
2023-03-10T21:46:37.382Z,18.53
2023-03-10T21:49:07.338Z,18.13
2023-03-10T21:51:39.705Z,17.40
2023-03-10T21:54:09.976Z,19.37
2023-03-10T21:56:41.579Z,19.70
2023-03-10T21:59:08.526Z,19.80
2023-03-10T22:01:37.570Z,20.53
2023-03-10T22:04:06.836Z,20.77
2023-03-10T22:06:33.664Z,20.07
2023-03-10T22:09:00.608Z,21.40
2023-03-10T22:11:29.817Z,20.80
2023-03-10T22:13:56.634Z,20.30
2023-03-10T22:16:25.780Z,20.13
2023-03-10T22:18:52.586Z,20.90
2023-03-10T22:21:21.719Z,20.13
2023-03-10T22:23:50.739Z,20.37
2023-03-10T22:26:17.486Z,19.73
2023-03-10T22:28:44.273Z,20.27
2023-03-10T22:31:11.138Z,20.27
2023-03-10T22:33:37.945Z,21.57
2023-03-10T22:36:06.384Z,20.67
2023-03-10T22:38:33.259Z,21.90
2023-03-10T22:41:00.065Z,20.53
2023-03-10T22:43:27.215Z,21.57
2023-03-10T22:45:59.209Z,21.63
2023-03-10T22:48:26.137Z,21.37
2023-03-10T22:50:55.131Z,21.83
2023-03-10T22:53:24.550Z,20.93
2023-03-10T22:55:51.340Z,21.13
2023-03-10T22:58:18.111Z,21.30
2023-03-10T23:00:46.375Z,19.97
2023-03-10T23:03:14.061Z,20.93
2023-03-10T23:05:41.163Z,21.03
2023-03-10T23:08:08.131Z,20.80
2023-03-10T23:10:35.143Z,21.43
2023-03-10T23:13:06.803Z,19.87
2023-03-10T23:15:35.195Z,19.80
2023-03-10T23:18:02.066Z,19.13
2023-03-10T23:20:33.914Z,19.47
2023-03-10T23:23:01.276Z,19.77
2023-03-10T23:25:35.861Z,19.73
2023-03-10T23:28:05.422Z,19.00
2023-03-10T23:30:32.633Z,19.90
2023-03-10T23:33:02.080Z,19.17
2023-03-10T23:35:31.182Z,19.93
2023-03-10T23:37:58.502Z,19.47
2023-03-10T23:40:27.082Z,19.97
2023-03-10T23:42:57.348Z,19.00
2023-03-10T23:45:25.005Z,19.70
2023-03-10T23:47:51.868Z,19.73
2023-03-10T23:50:21.401Z,19.37
2023-03-10T23:52:50.474Z,19.23
2023-03-10T23:55:19.301Z,19.00
2023-03-10T23:57:46.116Z,19.70
